Airfield :
LOGIN :

Register | Disclaimer

   EN    FR    IT 

 










Legend :    VFR   Marginal VFR   IFR   Intensive IFR   Very Intensive IFR
Visi :
Ceiling :
>= 8 km
>= 3000ft
5 to 8 km
1000 to 3000 ft
1500m to 5 km
500 to 1000 ft
800 to 1500m
200 to 500 ft
< 800m
< 200 ft
Symbols :   Thunderstorms  Fog  Heavy snow  Heavy precipitations  Wind > 20 kt
SIGMETs :     Misc.  Thunderstorms  Icing  Turbulence  Mountain Waves  Volcanic Ashes






- Airport Elevation : 364 ft


LFAQ - Albert Bray

CURRENT METAR :
  • 081430Z AUTO 06006KT 020V080 CAVOK 34/16 Q1018 TEMPO SHRA BKN100CB

EXPIRED METARs :
  • 081400Z AUTO 07005KT 020V100 CAVOK 34/15 Q1018 NOSIG
  • 081330Z AUTO 06005KT 030V090 CAVOK 34/15 Q1018 NOSIG
  • 081300Z AUTO 07005KT 010V140 CAVOK 34/15 Q1018 NOSIG
  • 081230Z AUTO 14004KT 070V220 CAVOK 34/15 Q1019 NOSIG
  • 081200Z AUTO VRB04KT CAVOK 34/15 Q1019 NOSIG

TAF TAF LFAQ
Valid from the 08 at 15:00 until the 09 at 00:00 UTC


081400Z 0815/0824 06006KT CAVOK
PROB30
TEMPO 0815/0824 SHRA BKN100CB



MET'MAP, your aeronautical weather chart ! - Copyright ORBIFLY December 2007 - Disclaimer

ORBIFLY MET'MAP TEAM :

Programming & Development : Alexandra Zaïnal
Concept & original design : Baudouin d'Aumeries
Assistance for programming : Marc-Olivier Méhu
Technical & hardware support : Manuel Goepfert

Contact : metmap@orbifly.com




SOURCES & CREDITS :

   NOAA